Terminal Aerodrome Forecast
Issued by NWS Wilmington, OH

Current Version | Previous Version | Graphics & Text | Print | Product List | Glossary On
Versions: 1 2 3 4 5 6 7 8 9 10 11 12 13 14 15 16 17 18 19 20 21 22
000
FTUS41 KILN 242200 AAB
TAFDAY
TAF AMD
KDAY 242253Z 2423/2518 25011KT P6SM SCT035 BKN200
      TEMPO 2500/2502 BKN025
     FM250400 22006KT P6SM BKN025
     FM251000 19005KT P6SM BKN080
     FM251300 15007KT P6SM SCT040 OVC070
      TEMPO 2517/2518 5SM -RA OVC025=

USA.gov is the U.S. government's official web portal to all federal, state and local government web resources and services.